Wheat Ridge, CO (80033)

9:14 AM MDT on July 25, 2016 (GMT -0600)
Lena Gulch @ 38th St | | Change Station

Elev 5413 ft 39.77 °N, 105.12 °W | Updated 10 minutes ago

Partly Cloudy
Partly Cloudy
69.1 °F
Feels Like 69.1 °F
N
3.0
Wind Variable Wind from NNE
Gusts 5.0 mph

Today
High -- | Low -- °F
--% Chance of Precip.
Yesterday
High -- | Low -- °F
Precip. -- in
Pressure 30.24 in
Visibility 30.0 miles
Clouds Few 20000 ft
Dew Point 57 °F
Humidity 66%
Rainfall 0.00 in
Snow Depth Not available.
5:53 AM 8:19 PM
Waning Gibbous, 65% visible
METAR KBJC 251446Z 04006KT 30SM FEW200 21/13 A3024
Pressure 30.24 in
Visibility 30.0 miles
Clouds Few 20000 ft
Dew Point 57 °F
Humidity 66%
Rainfall 0.00 in
Snow Depth Not available.
5:53 AM 8:19 PM
Waning Gibbous, 65% visible
METAR KBJC 251446Z 04006KT 30SM FEW200 21/13 A3024

10-Day Weather Forecast

Almanac

Astronomy

Jul. 25, 2016 Rise Set
Actual Time
Civil Twilight
Nautical Twilight
Astronomical Twilight
Moon
Length of Visible Light
Length of Day
Tomorrow will be .
, % of the Moon is Illuminated

Today's Extremes

State Highs State Lows

Community

WunderPhotos

Upload Photos

1,927,314 photos uploaded!

WunderBlog® & News

Nearby

Air Quality

  Air Quality AQ Index Pollutant
Not available.

Snow Depth

Station Depth Elevation

Earthquake Activity

City Distance Mag. Time & Date
Minimum magnitude displayed is 2.5.

Coastal Water Temperatures

Place Temperature

Stations

Nearby Weather Stations

Station Location Temp. Windchill Dew Point Humidity Wind Precip. Elev Updated Type
                   

Watches & Warnings

There are currently no watches in effect.